createdAt,value
2022-08-25T00:00:42.309Z,19.40
2022-08-25T00:01:55.308Z,19.40
2022-08-25T00:02:57.956Z,19.40
2022-08-25T00:04:01.864Z,19.40
2022-08-25T00:05:05.348Z,19.40
2022-08-25T00:06:09.025Z,19.30
2022-08-25T00:07:10.976Z,19.30
2022-08-25T00:08:12.743Z,19.30
2022-08-25T00:09:22.078Z,19.20
2022-08-25T00:10:24.013Z,19.20
2022-08-25T00:11:29.159Z,19.20
2022-08-25T00:12:30.975Z,19.30
2022-08-25T00:13:33.289Z,19.30
2022-08-25T00:14:37.090Z,19.30
2022-08-25T00:15:38.899Z,19.30
2022-08-25T00:16:41.243Z,19.20
2022-08-25T00:17:42.944Z,19.20
2022-08-25T00:18:47.596Z,19.20
2022-08-25T00:19:49.606Z,19.20
2022-08-25T00:20:51.639Z,19.20
2022-08-25T00:21:53.623Z,19.20
2022-08-25T00:22:56.186Z,19.20
2022-08-25T00:23:58.395Z,19.20
2022-08-25T00:25:00.108Z,19.20
2022-08-25T00:26:02.316Z,19.20
2022-08-25T00:27:04.618Z,19.20
2022-08-25T00:28:08.525Z,19.10
2022-08-25T00:29:11.158Z,19.10
2022-08-25T00:30:15.908Z,19.10
2022-08-25T00:31:20.553Z,19.10
2022-08-25T00:32:22.415Z,19.10
2022-08-25T00:33:26.202Z,19.10
2022-08-25T00:34:34.725Z,19.10
2022-08-25T00:35:36.775Z,19.00
2022-08-25T00:36:39.315Z,19.00
2022-08-25T00:37:41.164Z,19.00
2022-08-25T00:38:45.410Z,19.00
2022-08-25T00:39:47.213Z,18.90
2022-08-25T00:41:05.820Z,18.90
2022-08-25T00:42:11.749Z,19.00
2022-08-25T00:43:18.759Z,18.90
2022-08-25T00:44:21.288Z,19.00
2022-08-25T00:45:23.505Z,19.00
2022-08-25T00:46:35.198Z,18.90
2022-08-25T00:47:37.083Z,18.90
2022-08-25T00:48:41.355Z,18.90
2022-08-25T00:49:47.722Z,18.90
2022-08-25T00:50:49.544Z,18.90
2022-08-25T00:51:55.886Z,18.90
2022-08-25T00:53:05.587Z,18.90
2022-08-25T00:54:09.648Z,18.90
2022-08-25T00:55:23.325Z,18.90
2022-08-25T00:56:26.892Z,18.80
2022-08-25T00:57:34.894Z,18.80
2022-08-25T00:58:37.251Z,18.80
2022-08-25T00:59:40.241Z,18.80
2022-08-25T01:00:50.187Z,18.80
2022-08-25T01:01:52.545Z,18.80
2022-08-25T01:02:56.733Z,18.80
2022-08-25T01:03:58.606Z,18.80
2022-08-25T01:05:00.360Z,18.80
2022-08-25T01:06:03.913Z,18.80
2022-08-25T01:07:07.337Z,18.80
2022-08-25T01:08:22.400Z,18.80
2022-08-25T01:09:24.445Z,18.80
2022-08-25T01:10:27.514Z,18.80
2022-08-25T01:11:29.290Z,18.80
2022-08-25T01:12:31.027Z,18.80
2022-08-25T01:13:39.075Z,18.80
2022-08-25T01:14:41.167Z,18.80
2022-08-25T01:15:43.029Z,18.70
2022-08-25T01:16:45.640Z,18.70
2022-08-25T01:17:54.225Z,18.70
2022-08-25T01:19:00.370Z,18.70
2022-08-25T01:20:02.649Z,18.70
2022-08-25T01:21:04.354Z,18.70
2022-08-25T01:22:06.307Z,18.70
2022-08-25T01:23:08.143Z,18.70
2022-08-25T01:24:14.184Z,18.70
2022-08-25T01:25:50.149Z,18.60
2022-08-25T01:26:52.343Z,18.70
2022-08-25T01:27:54.170Z,18.70
2022-08-25T01:29:15.457Z,18.60
2022-08-25T01:30:17.800Z,18.60
2022-08-25T01:31:24.176Z,18.70
2022-08-25T01:32:26.464Z,18.70
2022-08-25T01:33:28.466Z,18.60
2022-08-25T01:34:32.869Z,18.60
2022-08-25T01:35:36.031Z,18.60
2022-08-25T01:36:38.067Z,18.60
2022-08-25T01:37:40.129Z,18.70
2022-08-25T01:38:41.822Z,18.70
2022-08-25T01:39:44.335Z,18.70
2022-08-25T01:40:46.871Z,18.60
2022-08-25T01:41:48.544Z,18.60
2022-08-25T01:43:18.078Z,18.60
2022-08-25T01:44:19.932Z,18.60
2022-08-25T01:45:21.977Z,18.60
2022-08-25T01:46:23.779Z,18.60
2022-08-25T01:47:25.638Z,18.60
2022-08-25T01:48:27.371Z,18.60
2022-08-25T01:49:29.080Z,18.50
2022-08-25T01:50:31.200Z,18.40
2022-08-25T01:51:44.467Z,18.50
2022-08-25T01:52:58.487Z,18.50
2022-08-25T01:54:00.310Z,18.50
2022-08-25T01:55:02.065Z,18.50
2022-08-25T01:56:11.936Z,18.40
2022-08-25T01:57:13.667Z,18.40
2022-08-25T01:58:15.387Z,18.50
2022-08-25T01:59:24.021Z,18.50
2022-08-25T02:00:25.895Z,18.50
2022-08-25T02:01:28.424Z,18.50
2022-08-25T02:02:31.360Z,18.50
2022-08-25T02:03:38.641Z,18.50
2022-08-25T02:04:44.557Z,18.50
2022-08-25T02:05:48.227Z,18.50
2022-08-25T02:06:50.583Z,18.40
2022-08-25T02:07:52.282Z,18.40
2022-08-25T02:08:56.217Z,18.40
2022-08-25T02:09:58.745Z,18.40
2022-08-25T02:11:04.851Z,18.40
2022-08-25T02:12:09.133Z,18.40
2022-08-25T02:13:10.844Z,18.40
2022-08-25T02:14:15.261Z,18.40
2022-08-25T02:15:16.981Z,18.40
2022-08-25T02:16:23.906Z,18.40
2022-08-25T02:17:25.643Z,18.40
2022-08-25T02:18:27.404Z,18.40
2022-08-25T02:19:30.958Z,18.40
2022-08-25T02:20:32.682Z,18.40
2022-08-25T02:21:35.362Z,18.40
2022-08-25T02:22:37.320Z,18.40
2022-08-25T02:23:39.041Z,18.40
2022-08-25T02:24:40.795Z,18.50
2022-08-25T02:25:44.312Z,18.40
2022-08-25T02:26:46.059Z,18.50
2022-08-25T02:27:47.915Z,18.50
2022-08-25T02:28:51.023Z,18.50
2022-08-25T02:29:52.713Z,18.50
2022-08-25T02:30:58.746Z,18.50
2022-08-25T02:32:04.314Z,18.50
2022-08-25T02:33:06.454Z,18.50
2022-08-25T02:34:09.804Z,18.50
2022-08-25T02:35:12.896Z,18.40
2022-08-25T02:36:14.726Z,18.40
2022-08-25T02:37:16.804Z,18.50
2022-08-25T02:38:18.560Z,18.50
2022-08-25T02:39:20.265Z,18.50
2022-08-25T02:40:22.489Z,18.50
2022-08-25T02:41:31.087Z,18.40
2022-08-25T02:42:34.064Z,18.50
2022-08-25T02:43:35.773Z,18.50
2022-08-25T02:44:37.513Z,18.50
2022-08-25T02:45:39.303Z,18.50
2022-08-25T02:46:41.179Z,18.50
2022-08-25T02:47:43.181Z,18.50
2022-08-25T02:48:45.195Z,18.50
2022-08-25T02:49:46.926Z,18.50
2022-08-25T02:50:51.579Z,18.60
2022-08-25T02:51:54.670Z,18.60
2022-08-25T02:52:56.383Z,18.60
2022-08-25T02:54:01.313Z,18.50
2022-08-25T02:55:05.185Z,18.60
2022-08-25T02:56:09.763Z,18.50
2022-08-25T02:57:12.605Z,18.50
2022-08-25T02:58:15.420Z,18.50
2022-08-25T02:59:18.143Z,18.50
2022-08-25T03:00:20.057Z,18.50
2022-08-25T03:01:22.520Z,18.50
2022-08-25T03:02:30.698Z,18.50
2022-08-25T03:03:37.509Z,18.50
2022-08-25T03:04:41.116Z,18.50
2022-08-25T03:05:43.423Z,18.50
2022-08-25T03:06:45.640Z,18.50
2022-08-25T03:07:47.360Z,18.50
2022-08-25T03:08:49.703Z,18.40
2022-08-25T03:09:51.434Z,18.50
2022-08-25T03:10:53.135Z,18.50
2022-08-25T03:11:54.854Z,18.40
2022-08-25T03:12:56.569Z,18.40
2022-08-25T03:13:58.269Z,18.40
2022-08-25T03:15:00.020Z,18.40
2022-08-25T03:16:04.221Z,18.40
2022-08-25T03:17:09.559Z,18.40
2022-08-25T03:18:11.857Z,18.40
2022-08-25T03:19:16.726Z,18.40
2022-08-25T03:20:19.416Z,18.40
2022-08-25T03:21:21.358Z,18.40
2022-08-25T03:22:23.141Z,18.40
2022-08-25T03:23:25.350Z,18.40
2022-08-25T03:24:27.636Z,18.40
2022-08-25T03:25:48.267Z,18.40
2022-08-25T03:26:56.222Z,18.40
2022-08-25T03:27:58.190Z,18.40
2022-08-25T03:29:01.418Z,18.40
2022-08-25T03:30:03.481Z,18.40
2022-08-25T03:31:05.573Z,18.40
2022-08-25T03:32:07.737Z,18.40
2022-08-25T03:33:09.660Z,18.40
2022-08-25T03:34:13.648Z,18.50
2022-08-25T03:35:15.507Z,18.50
2022-08-25T03:36:17.675Z,18.50
2022-08-25T03:37:19.518Z,18.60
2022-08-25T03:38:22.941Z,18.60
2022-08-25T03:39:25.946Z,18.60
2022-08-25T03:40:28.478Z,18.60
2022-08-25T03:41:32.762Z,18.50
2022-08-25T03:42:34.907Z,18.60
2022-08-25T03:43:36.716Z,18.50
2022-08-25T03:44:38.576Z,18.50
2022-08-25T03:45:42.423Z,18.40
2022-08-25T03:46:47.871Z,18.40
2022-08-25T03:47:50.792Z,18.40
2022-08-25T03:48:53.180Z,18.40
2022-08-25T03:49:55.213Z,18.50
2022-08-25T03:50:57.008Z,18.50
2022-08-25T03:51:59.519Z,18.50
2022-08-25T03:53:02.393Z,18.50
2022-08-25T03:54:06.187Z,18.40
2022-08-25T03:55:10.395Z,18.40
2022-08-25T03:56:12.214Z,18.30
2022-08-25T03:57:13.937Z,18.30
2022-08-25T03:58:15.757Z,18.30
2022-08-25T03:59:17.536Z,18.30
2022-08-25T04:00:20.271Z,18.30
2022-08-25T04:01:23.303Z,18.30
2022-08-25T04:02:25.271Z,18.30
2022-08-25T04:03:27.283Z,18.30
2022-08-25T04:04:29.363Z,18.30
2022-08-25T04:05:31.237Z,18.30
2022-08-25T04:06:35.260Z,18.30
2022-08-25T04:07:37.497Z,18.30
2022-08-25T04:08:39.643Z,18.20
2022-08-25T04:09:41.411Z,18.20
2022-08-25T04:10:43.095Z,18.10
2022-08-25T04:11:44.849Z,18.10
2022-08-25T04:12:49.197Z,18.00
2022-08-25T04:13:52.286Z,18.00
2022-08-25T04:14:54.264Z,18.00
2022-08-25T04:15:56.029Z,18.00
2022-08-25T04:16:57.841Z,18.00
2022-08-25T04:17:59.685Z,18.00
2022-08-25T04:19:03.694Z,18.00
2022-08-25T04:20:07.697Z,18.00
2022-08-25T04:21:11.227Z,17.90
2022-08-25T04:22:13.246Z,18.00
2022-08-25T04:23:15.109Z,18.00
2022-08-25T04:24:17.124Z,18.00
2022-08-25T04:25:18.952Z,18.10
2022-08-25T04:26:30.135Z,18.10
2022-08-25T04:27:31.877Z,18.10
2022-08-25T04:28:33.650Z,18.10
2022-08-25T04:29:35.424Z,18.20
2022-08-25T04:30:41.351Z,18.20
2022-08-25T04:31:46.922Z,18.10
2022-08-25T04:32:50.893Z,18.10
2022-08-25T04:33:52.960Z,18.20
2022-08-25T04:34:54.723Z,18.20
2022-08-25T04:35:56.416Z,18.20
2022-08-25T04:37:02.888Z,18.30
2022-08-25T04:38:04.930Z,18.30
2022-08-25T04:39:07.643Z,18.30
2022-08-25T04:40:10.526Z,18.30
2022-08-25T04:41:14.620Z,18.30
2022-08-25T04:42:16.329Z,18.30
2022-08-25T04:43:18.065Z,18.40
2022-08-25T04:44:19.815Z,18.40
2022-08-25T04:45:21.553Z,18.40
2022-08-25T04:46:25.214Z,18.40
2022-08-25T04:47:27.719Z,18.40
2022-08-25T04:48:31.205Z,18.40
2022-08-25T04:49:32.926Z,18.40
2022-08-25T04:50:39.168Z,18.40
2022-08-25T04:51:42.297Z,18.30
2022-08-25T04:52:44.154Z,18.30
2022-08-25T04:53:46.302Z,18.20
2022-08-25T04:54:48.002Z,18.20
2022-08-25T04:55:50.221Z,18.20
2022-08-25T04:56:54.651Z,18.20
2022-08-25T04:58:00.305Z,18.20
2022-08-25T04:59:08.592Z,18.10
2022-08-25T05:00:10.995Z,18.00
2022-08-25T05:01:19.032Z,18.00
2022-08-25T05:02:20.878Z,18.00
2022-08-25T05:03:22.573Z,18.00
2022-08-25T05:04:28.205Z,18.00
2022-08-25T05:05:31.355Z,18.00
2022-08-25T05:06:35.782Z,17.90
2022-08-25T05:07:37.798Z,17.90
2022-08-25T05:08:39.721Z,17.90
2022-08-25T05:09:41.524Z,18.00
2022-08-25T05:10:43.879Z,18.00
2022-08-25T05:11:45.677Z,18.10
2022-08-25T05:12:49.165Z,18.10
2022-08-25T05:13:53.480Z,18.10
2022-08-25T05:14:55.675Z,18.20
2022-08-25T05:16:00.111Z,18.20
2022-08-25T05:17:02.823Z,18.20
2022-08-25T05:18:04.649Z,18.20
2022-08-25T05:19:07.657Z,18.20
2022-08-25T05:20:09.732Z,18.20
2022-08-25T05:21:14.854Z,18.30
2022-08-25T05:22:16.542Z,18.30
2022-08-25T05:23:18.291Z,18.30
2022-08-25T05:24:20.976Z,18.30
2022-08-25T05:25:23.135Z,18.30
2022-08-25T05:26:27.320Z,18.30
2022-08-25T05:27:29.065Z,18.30
2022-08-25T05:28:30.821Z,18.30
2022-08-25T05:29:32.635Z,18.30
2022-08-25T05:30:36.953Z,18.30
2022-08-25T05:31:43.102Z,18.30
2022-08-25T05:32:45.796Z,18.30
2022-08-25T05:33:48.152Z,18.30
2022-08-25T05:34:49.866Z,18.30
2022-08-25T05:35:51.882Z,18.30
2022-08-25T05:36:54.534Z,18.30
2022-08-25T05:37:57.383Z,18.30
2022-08-25T05:38:59.073Z,18.30
2022-08-25T05:40:01.219Z,18.40
2022-08-25T05:41:06.503Z,18.40
2022-08-25T05:42:08.191Z,18.40
2022-08-25T05:43:10.384Z,18.40
2022-08-25T05:44:12.873Z,18.40
2022-08-25T05:45:20.256Z,18.30
2022-08-25T05:46:23.006Z,18.30
2022-08-25T05:47:24.802Z,18.30
2022-08-25T05:48:27.415Z,18.40
2022-08-25T05:49:30.471Z,18.40
2022-08-25T05:50:32.386Z,18.40
2022-08-25T05:51:34.154Z,18.40
2022-08-25T05:52:35.963Z,18.50
2022-08-25T05:53:41.442Z,18.50
2022-08-25T05:54:43.178Z,18.50
2022-08-25T05:55:45.553Z,18.50
2022-08-25T05:56:47.460Z,18.50
2022-08-25T05:57:49.379Z,18.50
2022-08-25T05:58:51.191Z,18.60
2022-08-25T05:59:52.880Z,18.60
2022-08-25T06:00:55.793Z,18.60
2022-08-25T06:02:15.913Z,18.60
2022-08-25T06:03:18.138Z,18.60
2022-08-25T06:04:20.909Z,18.60
2022-08-25T06:05:23.485Z,18.60
2022-08-25T06:06:26.298Z,18.60
2022-08-25T06:07:28.076Z,18.60
2022-08-25T06:08:33.603Z,18.60
2022-08-25T06:09:41.694Z,18.60
2022-08-25T06:10:43.409Z,18.60
2022-08-25T06:11:45.225Z,18.60
2022-08-25T06:12:48.163Z,18.70
2022-08-25T06:13:50.541Z,18.70
2022-08-25T06:14:52.734Z,18.70
2022-08-25T06:15:58.300Z,18.70
2022-08-25T06:17:00.816Z,18.70
2022-08-25T06:18:05.382Z,18.70
2022-08-25T06:19:09.109Z,18.80
2022-08-25T06:20:14.798Z,18.80
2022-08-25T06:21:18.548Z,18.80
2022-08-25T06:22:21.411Z,18.80
2022-08-25T06:23:23.152Z,18.80
2022-08-25T06:24:26.895Z,18.80
2022-08-25T06:25:32.578Z,18.80
2022-08-25T06:26:34.686Z,18.90
2022-08-25T06:27:37.205Z,18.90
2022-08-25T06:28:38.930Z,18.90
2022-08-25T06:29:40.647Z,19.00
2022-08-25T06:30:43.761Z,19.10
2022-08-25T06:31:46.729Z,19.10
2022-08-25T06:32:49.265Z,19.20
2022-08-25T06:33:51.538Z,19.20
2022-08-25T06:34:53.250Z,19.30
2022-08-25T06:35:57.288Z,19.30
2022-08-25T06:36:59.006Z,19.30
2022-08-25T06:38:00.718Z,19.40
2022-08-25T06:39:02.660Z,19.40
2022-08-25T06:40:07.328Z,19.40
2022-08-25T06:41:12.691Z,19.50
2022-08-25T06:42:14.626Z,19.50
2022-08-25T06:43:16.599Z,19.50
2022-08-25T06:44:18.325Z,19.60
2022-08-25T06:45:20.112Z,19.60
2022-08-25T06:46:35.748Z,19.70
2022-08-25T06:47:37.772Z,19.70
2022-08-25T06:48:39.994Z,19.70
2022-08-25T06:49:42.965Z,19.80
2022-08-25T06:50:44.936Z,19.80
2022-08-25T06:51:46.658Z,19.90
2022-08-25T06:52:48.345Z,19.90
2022-08-25T06:53:50.539Z,19.90
2022-08-25T06:54:53.188Z,19.90
2022-08-25T06:56:05.948Z,19.90
2022-08-25T06:57:08.894Z,20.00
2022-08-25T06:58:11.287Z,20.00
2022-08-25T06:59:13.988Z,20.10
2022-08-25T07:00:16.403Z,20.20
2022-08-25T07:01:23.409Z,20.20
2022-08-25T07:02:27.961Z,20.30
2022-08-25T07:03:31.041Z,20.20
2022-08-25T07:04:34.496Z,20.20
2022-08-25T07:05:44.127Z,20.20
2022-08-25T07:06:46.205Z,20.10
2022-08-25T07:07:47.952Z,20.20
2022-08-25T07:08:49.751Z,20.20
2022-08-25T07:09:51.494Z,20.30
2022-08-25T07:10:53.189Z,20.40
2022-08-25T07:11:55.397Z,20.50
2022-08-25T07:12:57.344Z,20.50
2022-08-25T07:13:59.030Z,20.50
2022-08-25T07:15:19.437Z,20.60
2022-08-25T07:16:22.055Z,20.60
2022-08-25T07:17:24.319Z,20.70
2022-08-25T07:18:27.085Z,20.70
2022-08-25T07:19:28.852Z,20.80
2022-08-25T07:20:31.473Z,20.80
2022-08-25T07:21:35.913Z,20.90
2022-08-25T07:22:37.867Z,21.00
2022-08-25T07:23:40.884Z,21.00
2022-08-25T07:24:42.733Z,21.10
2022-08-25T07:25:44.442Z,21.20
2022-08-25T07:26:46.776Z,21.30
2022-08-25T07:27:48.501Z,21.40
2022-08-25T07:28:50.902Z,21.40
2022-08-25T07:29:54.013Z,21.50
2022-08-25T07:31:00.879Z,21.50
2022-08-25T07:32:03.549Z,21.60
2022-08-25T07:33:06.925Z,21.60
2022-08-25T07:34:28.352Z,21.60
2022-08-25T07:35:37.515Z,21.60
2022-08-25T07:36:39.589Z,21.70
2022-08-25T07:37:49.562Z,21.70
2022-08-25T07:38:51.815Z,21.70
2022-08-25T07:39:53.642Z,21.80
2022-08-25T07:41:02.929Z,21.90
2022-08-25T07:42:05.487Z,21.90
2022-08-25T07:43:13.696Z,22.00
2022-08-25T07:44:15.410Z,22.10
2022-08-25T07:45:20.992Z,22.10
2022-08-25T07:46:23.007Z,22.10
2022-08-25T07:47:24.784Z,22.10
2022-08-25T07:48:26.913Z,22.10
2022-08-25T07:49:35.996Z,22.10
2022-08-25T07:50:45.281Z,22.20
2022-08-25T07:52:04.391Z,22.30
2022-08-25T07:53:09.392Z,22.40
2022-08-25T07:54:11.427Z,22.50
2022-08-25T07:55:17.920Z,22.60
2022-08-25T07:56:20.267Z,22.70
2022-08-25T07:57:23.939Z,22.80
2022-08-25T07:58:25.857Z,22.90
2022-08-25T07:59:27.657Z,22.90
2022-08-25T08:00:32.443Z,23.00
2022-08-25T08:01:34.276Z,23.10
2022-08-25T08:02:41.687Z,23.20
2022-08-25T08:03:50.400Z,23.20
2022-08-25T08:04:53.742Z,23.30
2022-08-25T08:05:56.555Z,23.40
2022-08-25T08:06:58.263Z,23.40
2022-08-25T08:08:00.895Z,23.50
2022-08-25T08:09:03.116Z,23.40
2022-08-25T08:10:42.391Z,23.50
2022-08-25T08:11:34.494Z,23.60
2022-08-25T08:12:36.316Z,23.70
2022-08-25T08:13:41.381Z,23.80
2022-08-25T08:14:45.095Z,23.80
2022-08-25T08:15:48.358Z,23.80
2022-08-25T08:16:50.462Z,23.80
2022-08-25T08:17:52.154Z,23.80
2022-08-25T08:18:54.899Z,23.80
2022-08-25T08:19:58.449Z,23.90
2022-08-25T08:21:00.135Z,23.90
2022-08-25T08:22:03.493Z,24.00
2022-08-25T08:23:05.938Z,24.10
2022-08-25T08:24:24.820Z,24.10
2022-08-25T08:25:30.454Z,24.30
2022-08-25T08:26:55.449Z,24.40
2022-08-25T08:27:55.514Z,24.50
2022-08-25T08:28:57.303Z,24.60
2022-08-25T08:30:00.339Z,24.60
2022-08-25T08:31:02.892Z,24.70
2022-08-25T08:32:10.062Z,24.80
2022-08-25T08:33:12.910Z,24.70
2022-08-25T08:34:15.005Z,24.80
2022-08-25T08:35:18.927Z,24.90
2022-08-25T08:36:21.524Z,25.00
2022-08-25T08:37:28.052Z,25.10
2022-08-25T08:38:29.867Z,25.20
2022-08-25T08:39:31.573Z,25.20
2022-08-25T08:41:23.312Z,25.20
2022-08-25T08:43:18.328Z,25.30
2022-08-25T08:44:30.837Z,25.30
2022-08-25T08:45:45.326Z,25.30
2022-08-25T08:47:09.050Z,25.20
2022-08-25T08:48:33.263Z,25.20
2022-08-25T08:49:49.456Z,25.20
2022-08-25T08:51:20.307Z,25.10
2022-08-25T08:52:43.301Z,25.00
2022-08-25T08:53:47.749Z,25.10
2022-08-25T08:54:58.498Z,25.00
2022-08-25T08:56:06.943Z,25.00
2022-08-25T08:57:16.660Z,24.90
2022-08-25T08:58:42.250Z,24.80
2022-08-25T08:59:55.468Z,24.80
2022-08-25T09:01:01.802Z,24.90
2022-08-25T09:02:06.105Z,25.00
2022-08-25T09:03:32.232Z,25.10
2022-08-25T09:04:51.813Z,25.20
2022-08-25T09:05:58.884Z,25.30
2022-08-25T09:07:04.972Z,25.40
2022-08-25T09:08:11.374Z,25.40
2022-08-25T09:09:35.648Z,25.60
2022-08-25T09:11:02.296Z,25.70
2022-08-25T09:12:18.111Z,25.60
2022-08-25T09:13:53.860Z,25.70
2022-08-25T09:15:14.658Z,25.70
2022-08-25T09:16:39.236Z,25.70
2022-08-25T09:17:54.427Z,25.70
2022-08-25T09:19:04.947Z,25.60
2022-08-25T09:20:33.478Z,25.60
2022-08-25T09:21:56.617Z,25.60
2022-08-25T09:23:20.250Z,25.60
2022-08-25T09:24:43.343Z,25.60
2022-08-25T09:26:19.873Z,25.60
2022-08-25T09:27:51.572Z,25.60
2022-08-25T09:29:16.736Z,25.70
2022-08-25T09:30:22.204Z,25.80
2022-08-25T09:31:35.635Z,25.80
2022-08-25T09:33:02.262Z,25.80
2022-08-25T09:34:07.739Z,25.90
2022-08-25T09:35:23.737Z,26.00
2022-08-25T09:36:26.025Z,26.00
2022-08-25T09:37:28.345Z,26.00
2022-08-25T09:38:31.098Z,26.10
2022-08-25T09:39:32.830Z,26.10
2022-08-25T09:40:38.365Z,26.20
2022-08-25T09:41:51.406Z,26.30
2022-08-25T09:42:57.851Z,26.40
2022-08-25T09:44:00.399Z,26.50
2022-08-25T09:45:02.101Z,26.60
2022-08-25T09:46:24.115Z,26.70
2022-08-25T09:47:29.052Z,26.80
2022-08-25T09:48:56.817Z,26.80
2022-08-25T09:50:01.278Z,26.70
2022-08-25T09:51:30.138Z,26.70
2022-08-25T09:52:42.463Z,26.90
2022-08-25T09:53:48.976Z,27.10
2022-08-25T09:54:52.468Z,27.30
2022-08-25T09:56:04.511Z,27.50
2022-08-25T09:57:08.542Z,27.60
2022-08-25T09:58:24.103Z,27.60
2022-08-25T09:59:35.034Z,27.50
2022-08-25T10:00:38.178Z,27.50
2022-08-25T10:01:52.303Z,27.60
2022-08-25T10:03:22.547Z,27.70
2022-08-25T10:04:28.565Z,27.80
2022-08-25T10:05:35.174Z,27.80
2022-08-25T10:06:44.916Z,27.90
2022-08-25T10:07:59.312Z,27.90
2022-08-25T10:09:07.566Z,27.90
2022-08-25T10:10:28.773Z,27.90
2022-08-25T10:11:43.549Z,27.90
2022-08-25T10:12:51.041Z,28.10
2022-08-25T10:14:03.571Z,28.20
2022-08-25T10:15:33.053Z,28.40
2022-08-25T10:16:36.533Z,28.50
2022-08-25T10:17:38.523Z,28.50
2022-08-25T10:18:40.913Z,28.50
2022-08-25T10:19:44.721Z,28.60
2022-08-25T10:21:01.034Z,28.60
2022-08-25T10:22:32.387Z,28.70
2022-08-25T10:23:40.894Z,28.80
2022-08-25T10:24:44.046Z,28.90
2022-08-25T10:26:00.411Z,29.00
2022-08-25T10:27:28.712Z,29.10
2022-08-25T10:28:34.794Z,29.30
2022-08-25T10:29:58.399Z,29.50
2022-08-25T10:31:13.222Z,29.60
2022-08-25T10:32:20.662Z,29.50
2022-08-25T10:33:34.349Z,29.40
2022-08-25T10:34:44.384Z,29.20
2022-08-25T10:36:01.628Z,29.20
2022-08-25T10:37:17.778Z,29.20
2022-08-25T10:38:38.580Z,29.10
2022-08-25T10:39:44.972Z,29.10
2022-08-25T10:41:16.156Z,29.10
2022-08-25T10:42:31.741Z,29.10
2022-08-25T10:43:43.718Z,29.20
2022-08-25T10:45:21.952Z,29.20
2022-08-25T10:46:59.970Z,29.20
2022-08-25T10:48:20.222Z,29.20
2022-08-25T10:49:45.372Z,29.10
2022-08-25T10:51:25.429Z,29.00
2022-08-25T10:52:39.397Z,28.90
2022-08-25T10:54:18.832Z,28.90
2022-08-25T10:55:29.321Z,28.80
2022-08-25T10:56:41.778Z,28.80
2022-08-25T10:57:49.586Z,28.60
2022-08-25T10:59:09.800Z,28.50
2022-08-25T11:00:17.685Z,28.40
2022-08-25T11:01:43.953Z,28.40
2022-08-25T11:02:58.333Z,28.30
2022-08-25T11:04:20.093Z,28.10
2022-08-25T11:05:49.688Z,28.00
2022-08-25T11:07:10.337Z,27.90
2022-08-25T11:08:33.810Z,27.90
2022-08-25T11:09:41.331Z,28.00
2022-08-25T11:10:48.526Z,28.20
2022-08-25T11:12:07.578Z,28.40
2022-08-25T11:13:21.351Z,28.50
2022-08-25T11:14:38.722Z,28.40
2022-08-25T11:16:18.867Z,28.40
2022-08-25T11:17:32.685Z,28.40
2022-08-25T11:18:36.605Z,28.40
2022-08-25T11:19:43.979Z,28.50
2022-08-25T11:21:01.331Z,28.70
2022-08-25T11:22:20.183Z,28.80
2022-08-25T11:23:27.532Z,28.80
2022-08-25T11:24:50.567Z,28.70
2022-08-25T11:25:57.712Z,28.70
2022-08-25T11:27:00.886Z,28.60
2022-08-25T11:28:11.915Z,28.60
2022-08-25T11:29:17.798Z,28.70
2022-08-25T11:30:19.685Z,28.80
2022-08-25T11:31:24.887Z,28.90
2022-08-25T11:32:26.829Z,29.00
2022-08-25T11:33:30.626Z,29.00
2022-08-25T11:34:36.098Z,29.00
2022-08-25T11:35:59.820Z,29.00
2022-08-25T11:37:25.562Z,29.00
2022-08-25T11:38:47.802Z,29.10
2022-08-25T11:39:52.633Z,29.10
2022-08-25T11:41:19.376Z,29.20
2022-08-25T11:42:38.343Z,29.20
2022-08-25T11:44:08.204Z,29.20
2022-08-25T11:45:28.520Z,29.10
2022-08-25T11:46:42.083Z,29.00
2022-08-25T11:47:44.284Z,29.10
2022-08-25T11:49:14.400Z,29.30
2022-08-25T11:50:54.582Z,29.40
2022-08-25T11:52:02.398Z,29.50
2022-08-25T11:53:28.918Z,29.60
2022-08-25T11:54:38.802Z,29.70
2022-08-25T11:55:51.105Z,29.80
2022-08-25T11:57:25.732Z,29.90
2022-08-25T11:58:45.833Z,30.10
2022-08-25T11:59:50.698Z,30.10
2022-08-25T12:00:52.980Z,30.10
2022-08-25T12:01:54.646Z,30.00
2022-08-25T12:03:00.932Z,30.00
2022-08-25T12:04:44.035Z,29.90
2022-08-25T12:05:47.007Z,29.90
2022-08-25T12:07:07.184Z,29.80
2022-08-25T12:08:27.854Z,29.80
2022-08-25T12:09:29.609Z,29.70
2022-08-25T12:10:59.007Z,29.70
2022-08-25T12:12:39.864Z,29.60
2022-08-25T12:13:51.962Z,29.50
2022-08-25T12:14:55.183Z,29.70
2022-08-25T12:15:59.600Z,29.70
2022-08-25T12:17:24.190Z,29.80
2022-08-25T12:18:31.988Z,29.90
2022-08-25T12:19:36.393Z,30.00
2022-08-25T12:20:57.866Z,30.10
2022-08-25T12:22:03.545Z,30.10
2022-08-25T12:23:06.235Z,30.30
2022-08-25T12:24:13.918Z,30.40
2022-08-25T12:25:33.780Z,30.50
2022-08-25T12:26:41.274Z,30.70
2022-08-25T12:28:24.261Z,30.90
2022-08-25T12:29:55.499Z,31.00
2022-08-25T12:31:07.182Z,30.70
2022-08-25T12:32:32.093Z,30.50
2022-08-25T12:33:54.655Z,30.30
2022-08-25T12:35:25.268Z,30.10
2022-08-25T12:36:34.036Z,30.00
2022-08-25T12:38:13.854Z,29.90
2022-08-25T12:39:28.733Z,29.90
2022-08-25T12:41:02.935Z,30.00
2022-08-25T12:42:07.362Z,30.30
2022-08-25T12:43:37.460Z,30.50
2022-08-25T12:44:44.008Z,30.70
2022-08-25T12:45:47.837Z,30.70
2022-08-25T12:47:27.223Z,30.80
2022-08-25T12:48:28.891Z,30.80
2022-08-25T12:49:34.471Z,30.70
2022-08-25T12:50:43.255Z,30.50
2022-08-25T12:52:10.725Z,30.30
2022-08-25T12:53:44.094Z,30.30
2022-08-25T12:54:55.530Z,30.40
2022-08-25T12:56:01.523Z,30.50
2022-08-25T12:57:44.649Z,30.60
2022-08-25T12:59:07.625Z,30.70
2022-08-25T13:00:21.215Z,30.90
2022-08-25T13:01:33.156Z,30.90
2022-08-25T13:02:52.166Z,30.90
2022-08-25T13:04:31.201Z,30.90
2022-08-25T13:05:42.136Z,30.80
2022-08-25T13:07:03.151Z,30.70
2022-08-25T13:08:33.688Z,30.50
2022-08-25T13:09:38.681Z,30.50
2022-08-25T13:11:04.694Z,30.50
2022-08-25T13:12:15.498Z,30.60
2022-08-25T13:13:50.929Z,30.70
2022-08-25T13:14:55.053Z,30.80
2022-08-25T13:16:07.076Z,30.80
2022-08-25T13:17:09.798Z,30.90
2022-08-25T13:18:28.780Z,30.90
2022-08-25T13:19:35.237Z,31.00
2022-08-25T13:20:37.152Z,31.00
2022-08-25T13:21:42.300Z,31.00
2022-08-25T13:22:55.158Z,31.10
2022-08-25T13:24:05.933Z,31.20
2022-08-25T13:25:16.022Z,31.20
2022-08-25T13:26:30.827Z,31.20
2022-08-25T13:27:35.827Z,31.10
2022-08-25T13:28:40.760Z,31.00
2022-08-25T13:29:53.086Z,30.90
2022-08-25T13:31:22.019Z,30.80
2022-08-25T13:32:32.419Z,30.60
2022-08-25T13:33:37.425Z,30.50
2022-08-25T13:34:42.680Z,30.40
2022-08-25T13:35:50.311Z,30.30
2022-08-25T13:37:12.911Z,30.30
2022-08-25T13:38:19.475Z,30.20
2022-08-25T13:39:38.989Z,30.10
2022-08-25T13:40:45.963Z,30.10
2022-08-25T13:41:55.410Z,30.00
2022-08-25T13:43:05.572Z,30.00
2022-08-25T13:44:07.442Z,30.00
2022-08-25T13:45:18.811Z,30.10
2022-08-25T13:46:22.448Z,30.20
2022-08-25T13:47:43.509Z,30.30
2022-08-25T13:48:49.458Z,30.40
2022-08-25T13:49:51.456Z,30.50
2022-08-25T13:51:31.018Z,30.50
2022-08-25T13:52:33.445Z,30.50
2022-08-25T13:53:35.880Z,30.50
2022-08-25T13:54:43.752Z,30.50
2022-08-25T13:55:50.698Z,30.50
2022-08-25T13:56:54.621Z,30.50
2022-08-25T13:58:01.037Z,30.60
2022-08-25T13:59:05.028Z,30.60
2022-08-25T14:00:12.448Z,30.60
2022-08-25T14:01:46.542Z,30.60
2022-08-25T14:02:54.158Z,30.50
2022-08-25T14:04:17.063Z,30.40
2022-08-25T14:05:39.706Z,30.30
2022-08-25T14:06:41.585Z,30.10
2022-08-25T14:08:09.175Z,30.10
2022-08-25T14:09:27.022Z,30.10
2022-08-25T14:11:01.613Z,30.30
2022-08-25T14:12:03.576Z,30.40
2022-08-25T14:13:13.777Z,30.50
2022-08-25T14:14:23.350Z,30.70
2022-08-25T14:15:25.873Z,30.80
2022-08-25T14:16:29.327Z,30.90
2022-08-25T14:17:39.961Z,31.00
2022-08-25T14:18:52.195Z,31.00
2022-08-25T14:19:54.102Z,31.10
2022-08-25T14:20:57.514Z,31.10
2022-08-25T14:22:02.098Z,31.10
2022-08-25T14:23:12.759Z,31.10
2022-08-25T14:24:22.609Z,31.10
2022-08-25T14:25:25.323Z,31.10
2022-08-25T14:26:27.125Z,31.00
2022-08-25T14:27:28.852Z,31.00
2022-08-25T14:28:31.903Z,31.00
2022-08-25T14:29:35.469Z,30.90
2022-08-25T14:30:49.445Z,30.90
2022-08-25T14:31:53.788Z,30.80
2022-08-25T14:32:56.301Z,30.80
2022-08-25T14:34:04.922Z,30.70